Time;durP1;ratioP1;P1;durP2;ratioP2;P2;SDS_P1;SDS_P2;PMS_P1;PMS_P2;Temp;Humidity;BMP_temperature;BMP_pressure;BME280_temperature;BME280_humidity;BME280_pressure;Samples;Min_cycle;Max_cycle;Signal;HPM_P1;HPM_P2
2022/11/06 00:01:08;;;;;;;2.10;1.90;;;;;;;-1.07;82.85;101443.94;10634880;27;20409;-76
2022/11/06 00:11:35;;;;;;;2.20;1.50;;;;;;;-1.07;82.70;101431.31;10640626;27;20038;-74
2022/11/06 00:16:42;;;;;;;3.20;1.60;;;;;;;-1.08;82.66;101423.41;10654961;27;20039;-75
2022/11/06 00:21:44;;;;;;;2.70;2.08;;;;;;;-1.05;82.75;101406.88;10632228;27;20031;-75
2022/11/06 00:26:47;;;;;;;3.38;2.00;;;;;;;-1.05;82.66;101391.56;10652223;27;20047;-76
2022/11/06 00:31:49;;;;;;;3.05;2.05;;;;;;;-1.03;82.66;101365.28;10644748;27;20039;-75
2022/11/06 00:36:51;;;;;;;2.17;1.70;;;;;;;-1.01;82.57;101374.03;10620269;27;20047;-75
2022/11/06 00:41:53;;;;;;;3.03;1.65;;;;;;;-1.01;82.96;101344.41;10649206;27;20038;-75
2022/11/06 00:46:55;;;;;;;3.22;2.08;;;;;;;-1.02;82.55;101355.34;10651593;27;20057;-76
2022/11/06 00:51:58;;;;;;;2.80;1.50;;;;;;;-0.98;82.53;101346.72;10621582;27;20050;-75
2022/11/06 00:57:00;;;;;;;2.28;1.60;;;;;;;-0.99;82.57;101344.19;10647417;27;20039;-74
2022/11/06 01:02:03;;;;;;;1.48;1.38;;;;;;;-1.05;82.59;101348.47;10642840;27;20638;-73
2022/11/06 01:07:05;;;;;;;2.50;1.63;;;;;;;-1.07;82.56;101365.84;10647389;27;20043;-74
2022/11/06 01:12:07;;;;;;;2.80;1.80;;;;;;;-1.04;83.16;101354.69;10648787;27;20509;-74
2022/11/06 01:17:09;;;;;;;2.00;1.70;;;;;;;-1.06;83.13;101345.97;10642540;27;20059;-74
2022/11/06 01:22:12;;;;;;;2.22;1.83;;;;;;;-1.04;83.21;101339.38;10632795;27;20043;-75
2022/11/06 01:27:14;;;;;;;2.13;1.60;;;;;;;-1.04;83.12;101330.44;10604470;28;20036;-74
2022/11/06 01:32:17;;;;;;;2.38;1.60;;;;;;;-1.08;83.10;101300.38;10633536;28;20042;-75
2022/11/06 01:37:19;;;;;;;2.00;1.80;;;;;;;-1.03;83.09;101302.50;10628292;28;20063;-75
2022/11/06 01:42:21;;;;;;;1.55;1.45;;;;;;;-1.05;83.39;101289.22;10630213;28;20035;-75
2022/11/06 01:47:27;;;;;;;3.45;1.73;;;;;;;-1.04;83.46;101295.44;10648293;28;20520;-75
2022/11/06 01:52:32;;;;;;;3.80;2.17;;;;;;;-1.03;84.01;101286.34;10645279;28;20031;-75
2022/11/06 01:57:34;;;;;;;2.88;1.90;;;;;;;-1.04;83.68;101277.44;10615142;28;20039;-75
2022/11/06 02:02:38;;;;;;;2.60;2.08;;;;;;;-1.07;83.79;101272.41;10632508;28;20070;-74
2022/11/06 02:07:41;;;;;;;3.08;2.20;;;;;;;-1.04;83.28;101273.88;10649248;27;20047;-74
2022/11/06 02:13:08;;;;;;;3.72;2.45;;;;;;;-1.08;83.65;101268.03;10624777;28;20042;-75
2022/11/06 02:18:31;;;;;;;4.20;2.50;;;;;;;-1.09;83.24;101269.06;10645670;28;20043;-75
2022/11/06 02:24:10;;;;;;;4.22;2.65;;;;;;;-1.11;83.86;101265.75;10657764;27;20035;-76
2022/11/06 02:29:20;;;;;;;4.03;2.50;;;;;;;-1.10;83.96;101264.72;10657454;27;20459;-75
2022/11/06 02:34:23;;;;;;;2.92;2.13;;;;;;;-1.06;83.81;101260.59;10640040;27;20035;-75
2022/11/06 02:39:27;;;;;;;4.28;2.42;;;;;;;-1.01;84.02;101244.72;10640985;27;20039;-75
2022/11/06 02:44:31;;;;;;;4.75;2.50;;;;;;;-0.98;84.25;101256.97;10602618;28;20046;-75
2022/11/06 02:49:44;;;;;;;4.20;2.42;;;;;;;-0.93;84.09;101227.59;10609160;27;20027;-75
2022/11/06 02:54:54;;;;;;;3.03;2.25;;;;;;;-0.93;84.47;101223.06;10638485;27;20050;-74
2022/11/06 03:00:03;;;;;;;3.72;2.60;;;;;;;-0.92;83.97;101224.72;10640323;27;20051;-74
2022/11/06 03:05:14;;;;;;;4.55;2.90;;;;;;;-0.88;84.26;101229.72;10658062;27;20505;-74
2022/11/06 03:10:17;;;;;;;5.22;3.05;;;;;;;-0.88;84.38;101217.06;10631572;27;20032;-74
2022/11/06 03:15:42;;;;;;;4.57;2.53;;;;;;;-0.89;84.28;101223.50;10649604;27;20045;-74
2022/11/06 03:21:21;;;;;;;4.32;2.83;;;;;;;-0.91;84.43;101218.31;10629585;27;20050;-74
2022/11/06 03:26:28;;;;;;;5.68;2.90;;;;;;;-0.89;85.06;101201.94;10507314;27;20176;-75
2022/11/06 03:31:36;;;;;;;5.07;2.85;;;;;;;-0.87;85.06;101202.56;10653167;27;20027;-74
2022/11/06 03:36:46;;;;;;;6.18;3.60;;;;;;;-0.82;85.34;101212.81;10634491;27;20046;-75
2022/11/06 03:42:06;;;;;;;6.28;3.00;;;;;;;-0.84;85.04;101209.47;10639453;27;20039;-75
2022/11/06 03:47:36;;;;;;;5.78;3.20;;;;;;;-0.86;85.67;101196.19;10633821;27;20401;-75
2022/11/06 03:52:45;;;;;;;5.55;3.17;;;;;;;-0.87;86.05;101196.34;10630850;27;20047;-75
2022/11/06 03:57:51;;;;;;;8.60;3.55;;;;;;;-0.88;86.09;101182.06;10601148;27;20066;-75
2022/11/06 04:03:05;;;;;;;9.32;4.32;;;;;;;-0.94;86.28;101178.28;10634789;27;20493;-75
2022/11/06 04:18:52;;;;;;;8.25;4.32;;;;;;;-0.89;86.83;101180.38;10645796;27;20513;-75
2022/11/06 04:30:00;;;;;;;8.52;4.10;;;;;;;-0.90;87.98;101181.41;10624169;27;20142;-75
2022/11/06 04:35:33;;;;;;;7.38;3.92;;;;;;;-0.88;87.97;101175.84;10604490;28;20069;-75
2022/11/06 04:40:52;;;;;;;11.77;4.57;;;;;;;-0.89;88.23;101185.78;10612711;28;20069;-75
2022/11/06 04:45:55;;;;;;;7.57;4.10;;;;;;;-0.91;88.74;101174.38;10610486;27;20409;-75
2022/11/06 04:51:01;;;;;;;10.43;4.43;;;;;;;-0.92;88.95;101176.22;10620672;27;20051;-75
2022/11/06 04:56:11;;;;;;;8.77;4.45;;;;;;;-1.00;89.15;101162.91;10635045;27;20050;-75
2022/11/06 05:01:13;;;;;;;7.32;3.55;;;;;;;-1.01;89.79;101150.47;10624943;27;20420;-74
2022/11/06 05:06:16;;;;;;;10.38;4.95;;;;;;;-1.00;90.04;101156.69;10626984;27;20040;-75
2022/11/06 05:11:18;;;;;;;8.98;4.40;;;;;;;-0.97;90.79;101156.28;10643175;27;20043;-75
2022/11/06 05:16:20;;;;;;;8.75;4.20;;;;;;;-1.01;91.30;101145.06;10645347;27;20390;-75
2022/11/06 05:26:44;;;;;;;7.70;4.20;;;;;;;-1.03;92.44;101141.75;10636726;27;20044;-74
2022/11/06 05:31:46;;;;;;;9.23;4.25;;;;;;;-0.97;92.28;101143.66;10636017;28;20501;-74
2022/11/06 05:36:48;;;;;;;10.40;4.63;;;;;;;-0.98;93.01;101141.16;10645264;27;20524;-74
2022/11/06 05:41:50;;;;;;;10.35;4.47;;;;;;;-1.01;92.93;101139.69;10644722;28;20412;-75
2022/11/06 05:46:53;;;;;;;9.77;4.38;;;;;;;-1.01;93.20;101128.91;10646136;28;20035;-76
2022/11/06 05:51:55;;;;;;;11.88;4.13;;;;;;;-1.00;93.26;101135.97;10647092;28;20050;-75
2022/11/06 05:56:57;;;;;;;11.18;4.65;;;;;;;-0.96;93.60;101131.03;10637698;27;20074;-75
2022/11/06 06:02:00;;;;;;;8.93;4.13;;;;;;;-0.95;93.25;101144.28;10615175;27;20051;-73
2022/11/06 06:07:02;;;;;;;10.85;4.78;;;;;;;-0.95;93.10;101133.53;10617641;28;20051;-74
2022/11/06 06:12:05;;;;;;;16.02;5.20;;;;;;;-0.91;92.86;101126.72;10618391;28;20412;-74
2022/11/06 06:17:07;;;;;;;10.98;5.90;;;;;;;-0.84;92.90;101134.88;10617731;28;20044;-74
2022/11/06 06:22:09;;;;;;;10.90;4.60;;;;;;;-0.82;93.27;101132.81;10599266;28;20059;-74
2022/11/06 06:27:12;;;;;;;9.55;5.00;;;;;;;-0.83;92.73;101109.59;10611006;28;20074;-74
2022/11/06 06:32:14;;;;;;;7.90;4.50;;;;;;;-0.81;92.85;101122.88;10616239;28;20043;-74
2022/11/06 06:37:17;;;;;;;12.98;5.28;;;;;;;-0.84;93.04;101107.94;10616821;28;20048;-74
2022/11/06 06:42:19;;;;;;;9.93;4.15;;;;;;;-0.82;93.18;101113.13;10615866;28;20052;-74
2022/11/06 06:47:21;;;;;;;8.45;4.10;;;;;;;-0.82;92.96;101113.13;10617850;28;20537;-74
2022/11/06 06:52:23;;;;;;;8.52;4.05;;;;;;;-0.86;93.64;101109.97;10616331;28;20043;-74
2022/11/06 06:57:25;;;;;;;11.10;4.38;;;;;;;-0.89;93.63;101104.97;10616529;28;20039;-74
2022/11/06 07:02:28;;;;;;;8.68;4.60;;;;;;;-0.88;94.07;101105.78;10611927;27;20505;-74
2022/11/06 07:07:31;;;;;;;10.38;4.88;;;;;;;-0.89;94.19;101096.03;10613806;28;20059;-74
2022/11/06 07:12:33;;;;;;;7.45;3.38;;;;;;;-0.87;94.41;101102.06;10629715;27;20050;-74
2022/11/06 07:17:35;;;;;;;12.05;4.88;;;;;;;-0.86;94.45;101107.28;10616490;27;20051;-74
2022/11/06 07:22:38;;;;;;;10.50;4.68;;;;;;;-0.83;94.97;101097.97;10615604;28;20050;-74
2022/11/06 07:27:40;;;;;;;9.07;4.45;;;;;;;-0.82;95.19;101094.25;10615794;28;20047;-74
2022/11/06 07:32:42;;;;;;;8.40;4.55;;;;;;;-0.84;95.64;101097.16;10597694;28;20047;-74
2022/11/06 07:37:45;;;;;;;8.68;4.53;;;;;;;-0.84;96.12;101091.75;10615301;28;20039;-74
2022/11/06 07:42:47;;;;;;;8.35;4.28;;;;;;;-0.84;96.25;101085.53;10615143;28;20035;-74
2022/11/06 07:47:51;;;;;;;11.95;4.35;;;;;;;-0.82;96.17;101078.09;10575152;28;20042;-74
2022/11/06 07:52:53;;;;;;;7.20;3.55;;;;;;;-0.81;96.33;101061.72;10595828;28;20039;-74
2022/11/06 07:57:57;;;;;;;9.63;4.30;;;;;;;-0.78;96.78;101064.03;10614206;28;20043;-74
2022/11/06 08:02:59;;;;;;;9.10;4.40;;;;;;;-0.72;96.52;101063.22;10595832;28;20043;-74
2022/11/06 08:08:02;;;;;;;7.45;3.88;;;;;;;-0.71;96.52;101070.28;10613288;28;20039;-74
2022/11/06 08:13:04;;;;;;;7.53;3.85;;;;;;;-0.69;96.52;101056.63;10612949;27;20043;-74
2022/11/06 08:18:07;;;;;;;7.63;3.25;;;;;;;-0.65;96.53;101076.75;10623257;27;20059;-74
2022/11/06 08:23:11;;;;;;;7.75;3.63;;;;;;;-0.59;96.65;101065.19;10647998;27;20062;-74
2022/11/06 08:28:13;;;;;;;7.35;3.67;;;;;;;-0.55;96.76;101065.63;10632177;27;20044;-74
2022/11/06 08:33:16;;;;;;;6.65;3.25;;;;;;;-0.53;96.50;101058.16;10612961;28;20417;-74
2022/11/06 08:38:18;;;;;;;6.97;3.53;;;;;;;-0.52;96.79;101060.69;10594990;28;20062;-74
2022/11/06 08:43:25;;;;;;;6.72;3.08;;;;;;;-0.51;96.29;101053.44;10627806;27;20493;-74
2022/11/06 08:48:27;;;;;;;8.30;3.72;;;;;;;-0.46;96.20;101051.78;10612369;28;20035;-74
2022/11/06 08:53:29;;;;;;;6.10;3.00;;;;;;;-0.41;96.18;101056.59;10612809;28;20052;-74
2022/11/06 08:58:31;;;;;;;5.28;3.05;;;;;;;-0.38;96.38;101059.69;10611894;28;20051;-74
2022/11/06 09:03:34;;;;;;;7.03;3.08;;;;;;;-0.31;96.34;101052.50;10579224;28;20522;-75
2022/11/06 09:08:36;;;;;;;6.88;2.92;;;;;;;-0.29;96.64;101060.38;10596969;28;20052;-74
2022/11/06 09:13:38;;;;;;;5.50;3.17;;;;;;;-0.26;96.44;101048.38;10571419;28;20040;-74
2022/11/06 09:18:40;;;;;;;4.35;2.40;;;;;;;-0.25;96.57;101048.16;10572625;28;20044;-74
2022/11/06 09:23:44;;;;;;;3.47;1.90;;;;;;;-0.18;96.56;101040.09;10611962;28;20035;-75
2022/11/06 09:28:47;;;;;;;4.90;2.45;;;;;;;-0.15;96.29;101034.31;10572033;28;20036;-75
2022/11/06 09:33:53;;;;;;;4.15;2.35;;;;;;;-0.13;96.52;101034.94;10580896;28;20134;-76
2022/11/06 09:38:55;;;;;;;4.72;3.05;;;;;;;-0.10;96.43;101034.53;10597272;28;20043;-75
2022/11/06 09:44:18;;;;;;;4.72;2.65;;;;;;;-0.11;96.40;101035.56;10604233;28;20048;-76
2022/11/06 09:49:26;;;;;;;2.45;1.92;;;;;;;0.17;96.32;101035.44;10637405;28;20043;-74
2022/11/06 09:54:42;;;;;;;3.45;2.60;;;;;;;0.51;96.80;101029.09;10603131;28;20532;-77
2022/11/06 09:59:49;;;;;;;4.18;2.28;;;;;;;0.53;96.85;101030.56;10609845;27;20408;-75
2022/11/06 10:05:05;;;;;;;4.72;2.50;;;;;;;0.60;96.10;101026.00;10631200;28;20046;-77
2022/11/06 10:10:14;;;;;;;5.03;2.33;;;;;;;0.71;95.28;101043.47;10649123;27;20039;-77
2022/11/06 10:15:48;;;;;;;4.68;2.67;;;;;;;0.83;95.08;101043.66;10649716;28;20058;-76
2022/11/06 10:20:52;;;;;;;3.92;2.50;;;;;;;0.95;95.16;101038.47;10624637;27;20051;-75
2022/11/06 10:26:08;;;;;;;3.67;1.85;;;;;;;0.92;94.56;101023.53;10612100;27;20048;-75
2022/11/06 10:31:23;;;;;;;4.55;2.67;;;;;;;0.80;94.12;101026.00;10613944;28;20065;-76
2022/11/06 10:36:52;;;;;;;4.85;2.65;;;;;;;0.92;94.35;101019.97;10650096;28;20114;-75
2022/11/06 10:42:21;;;;;;;4.28;2.72;;;;;;;0.93;94.46;101016.25;10637326;27;20053;-74
2022/11/06 10:47:29;;;;;;;3.95;1.98;;;;;;;0.85;95.12;101007.28;10621880;27;20039;-75
2022/11/06 10:52:58;;;;;;;4.75;1.92;;;;;;;0.87;95.26;101005.25;10658512;27;20512;-75
2022/11/06 10:58:05;;;;;;;3.30;2.40;;;;;;;0.96;95.71;101005.84;10658889;27;20054;-74
2022/11/06 11:03:41;;;;;;;5.43;2.55;;;;;;;0.88;96.04;101006.06;10636832;27;20350;-73
2022/11/06 11:08:48;;;;;;;4.05;2.42;;;;;;;0.98;95.78;101002.94;10664837;27;20137;-80
2022/11/06 11:14:00;;;;;;;4.75;2.47;;;;;;;1.03;96.25;101003.94;10671465;27;20050;-79
2022/11/06 11:19:25;;;;;;;3.63;2.30;;;;;;;1.22;96.40;100994.19;10656469;27;20055;-82
2022/11/06 11:24:27;;;;;;;3.47;2.42;;;;;;;1.18;96.42;100996.44;10653264;27;20057;-82
2022/11/06 11:29:31;;;;;;;2.83;2.10;;;;;;;1.17;95.86;100988.56;10640828;27;20043;-81
2022/11/06 11:34:36;;;;;;;4.40;2.20;;;;;;;1.18;95.78;100998.31;10658526;27;20417;-82
2022/11/06 11:39:44;;;;;;;3.67;2.28;;;;;;;1.21;96.30;100997.91;10657568;27;20458;-82
2022/11/06 11:44:46;;;;;;;7.03;2.28;;;;;;;1.24;95.75;100989.38;10656934;27;20042;-82
2022/11/06 11:49:49;;;;;;;2.17;1.73;;;;;;;1.27;96.29;101002.47;10676169;27;20058;-81
2022/11/06 11:54:52;;;;;;;2.95;2.00;;;;;;;1.25;96.15;100988.34;10650690;27;20845;-80
2022/11/06 12:00:02;;;;;;;6.80;2.72;;;;;;;1.28;95.83;100990.63;10636833;27;20050;-79
2022/11/06 12:05:13;;;;;;;2.63;1.92;;;;;;;1.31;96.49;100979.38;10644104;27;20050;-80
2022/11/06 12:10:30;;;;;;;6.75;2.47;;;;;;;1.32;96.16;100982.91;10648989;27;20031;-81
2022/11/06 12:15:37;;;;;;;3.25;2.10;;;;;;;1.38;96.51;100987.47;10649521;27;20046;-80
2022/11/06 12:20:53;;;;;;;4.60;2.70;;;;;;;1.44;96.32;100982.06;10618999;27;20405;-80
2022/11/06 12:26:06;;;;;;;5.00;2.72;;;;;;;1.44;96.52;100979.34;10633512;27;20035;-79
2022/11/06 12:31:41;;;;;;;5.10;2.00;;;;;;;1.53;96.60;100982.63;10676606;27;20043;-79
2022/11/06 12:37:03;;;;;;;4.35;2.22;;;;;;;1.42;96.45;100981.44;10607598;27;20051;-79
2022/11/06 12:42:06;;;;;;;4.25;2.90;;;;;;;1.34;96.28;100978.13;10626445;27;20049;-81
2022/11/06 12:47:52;;;;;;;2.55;1.95;;;;;;;1.31;96.80;100979.38;10631108;27;20448;-80
2022/11/06 12:53:10;;;;;;;7.47;2.92;;;;;;;1.34;96.61;100983.53;10506048;27;20129;-80
2022/11/06 12:58:42;;;;;;;4.17;2.03;;;;;;;1.44;97.06;100978.53;10659550;27;20047;-79
2022/11/06 13:03:51;;;;;;;3.28;2.40;;;;;;;1.49;96.74;100974.13;10647735;27;20125;-80
2022/11/06 13:09:26;;;;;;;5.15;2.55;;;;;;;1.55;96.85;100979.72;10653193;27;20035;-76
2022/11/06 13:14:35;;;;;;;6.35;2.72;;;;;;;1.58;96.72;100979.31;10549770;27;20536;-76
2022/11/06 13:19:49;;;;;;;4.13;2.30;;;;;;;1.72;96.38;100978.19;10654416;27;20035;-75
2022/11/06 13:25:09;;;;;;;5.13;2.80;;;;;;;1.76;96.47;100974.03;10636149;27;20043;-75
2022/11/06 13:30:16;;;;;;;5.57;2.70;;;;;;;1.80;96.24;100967.97;10613714;28;20043;-77
2022/11/06 13:35:20;;;;;;;6.78;3.00;;;;;;;1.74;96.02;100968.84;10635439;28;20057;-74
2022/11/06 13:40:36;;;;;;;6.72;3.10;;;;;;;1.77;95.53;100976.53;10653584;28;20047;-77
2022/11/06 13:46:00;;;;;;;7.50;3.50;;;;;;;1.92;95.05;100976.25;10630907;28;20035;-83
2022/11/06 13:51:32;;;;;;;7.22;2.85;;;;;;;2.00;95.22;100989.50;10617293;28;20031;-79
2022/11/06 13:56:58;;;;;;;5.53;2.75;;;;;;;1.92;95.49;100984.38;10641621;28;20055;-78
2022/11/06 14:02:27;;;;;;;5.15;3.25;;;;;;;1.98;94.91;101002.44;10632498;28;20050;-80
2022/11/06 14:07:30;;;;;;;7.28;3.17;;;;;;;1.89;94.87;101011.81;10625703;28;20043;-80
2022/11/06 14:12:32;;;;;;;5.68;3.65;;;;;;;1.89;95.44;101009.13;10637659;28;20050;-79
2022/11/06 14:17:35;;;;;;;5.57;2.95;;;;;;;2.01;95.13;101014.69;10656479;27;20050;-80
2022/11/06 14:22:37;;;;;;;4.10;2.42;;;;;;;1.95;95.21;101012.88;10604726;28;20040;-80
2022/11/06 14:27:39;;;;;;;4.97;2.78;;;;;;;1.96;95.54;101009.94;10607856;27;20409;-84
2022/11/06 14:32:44;;;;;;;2.83;2.40;;;;;;;2.02;95.49;101005.53;10657201;27;20039;-76
2022/11/06 14:37:47;;;;;;;4.68;2.80;;;;;;;2.05;95.14;101005.94;10641997;27;20051;-77
2022/11/06 14:42:49;;;;;;;6.78;2.63;;;;;;;1.86;95.90;101000.59;10660152;27;20120;-76
2022/11/06 14:47:55;;;;;;;4.32;2.33;;;;;;;1.96;95.38;100999.13;10636213;27;20039;-75
2022/11/06 14:53:18;;;;;;;4.45;3.05;;;;;;;1.93;96.22;101004.97;10659668;27;20047;-76
2022/11/06 14:58:23;;;;;;;6.38;2.50;;;;;;;1.99;96.40;100998.69;10653192;27;20050;-76
2022/11/06 15:03:33;;;;;;;6.00;2.78;;;;;;;1.93;96.54;100996.84;10652695;27;20548;-77
2022/11/06 15:08:56;;;;;;;3.30;2.22;;;;;;;1.90;96.27;100996.41;10642582;27;20043;-85
2022/11/06 15:13:58;;;;;;;4.22;2.92;;;;;;;1.91;96.58;100989.97;10612916;27;20042;-80
2022/11/06 15:19:02;;;;;;;5.43;2.97;;;;;;;1.88;97.24;100985.00;10632048;27;20066;-86
2022/11/06 15:24:14;;;;;;;5.85;2.75;;;;;;;1.86;97.41;100981.66;10636966;27;20054;-80
2022/11/06 15:29:25;;;;;;;5.72;3.45;;;;;;;1.73;97.25;100971.72;10629552;27;20054;-81
2022/11/06 15:34:36;;;;;;;6.97;3.80;;;;;;;1.76;98.07;100977.56;10624125;27;20070;-82
2022/11/06 15:39:54;;;;;;;5.28;3.28;;;;;;;1.85;98.43;100988.13;10627032;27;20531;-83
2022/11/06 15:45:08;;;;;;;7.07;3.30;;;;;;;1.89;98.23;100982.06;10638141;27;20493;-79
2022/11/06 15:50:14;;;;;;;5.57;3.70;;;;;;;1.91;98.55;100982.72;10643880;27;20043;-87
2022/11/06 15:55:31;;;;;;;6.72;3.33;;;;;;;1.96;98.71;100979.34;10619377;27;20042;-82
2022/11/06 16:00:35;;;;;;;5.28;3.33;;;;;;;1.98;98.80;100978.06;10629144;27;20051;-83
2022/11/06 16:05:39;;;;;;;6.13;3.45;;;;;;;1.90;99.41;100970.19;10623527;27;20047;-84
2022/11/06 16:10:43;;;;;;;7.70;3.90;;;;;;;1.91;98.88;100966.47;10632955;27;20038;-85
2022/11/06 16:15:49;;;;;;;8.68;4.32;;;;;;;1.93;98.95;100961.66;10612376;27;20035;-86
2022/11/06 16:20:54;;;;;;;8.82;4.30;;;;;;;1.91;99.16;100954.78;10651252;27;20054;-84
2022/11/06 16:26:03;;;;;;;9.60;5.00;;;;;;;1.92;99.67;100960.00;10677747;27;20047;-90
2022/11/06 16:31:17;;;;;;;8.13;4.70;;;;;;;1.98;99.55;100959.13;10653589;27;20035;-90
2022/11/06 16:36:19;;;;;;;10.85;4.25;;;;;;;2.08;99.91;100959.50;10663063;27;20041;-90
2022/11/06 16:41:58;;;;;;;11.27;4.13;;;;;;;2.17;100.00;100962.75;10663339;27;20035;-79
2022/11/06 16:47:03;;;;;;;6.55;4.40;;;;;;;2.23;100.00;100955.63;10621225;27;20324;-77
2022/11/06 16:52:19;;;;;;;6.82;4.05;;;;;;;2.15;100.00;100948.63;10651723;27;20035;-77
2022/11/06 16:57:34;;;;;;;10.05;4.38;;;;;;;2.22;100.00;100945.84;10632551;27;20043;-76
2022/11/06 17:02:37;;;;;;;5.90;3.33;;;;;;;2.24;99.75;100947.28;10619254;27;20050;-75
2022/11/06 17:07:40;;;;;;;5.65;3.75;;;;;;;2.28;99.85;100948.53;10628832;27;20034;-76
2022/11/06 17:12:46;;;;;;;7.97;4.32;;;;;;;2.34;99.82;100949.53;10648715;27;20058;-75
2022/11/06 17:17:49;;;;;;;10.18;4.78;;;;;;;2.31;99.74;100949.97;10648486;27;20505;-76
2022/11/06 17:22:51;;;;;;;7.45;4.18;;;;;;;2.40;99.71;100952.19;10638544;27;20028;-75
2022/11/06 17:27:54;;;;;;;6.93;4.03;;;;;;;2.37;99.75;100940.97;10652567;27;20448;-85
2022/11/06 17:32:56;;;;;;;8.13;3.97;;;;;;;2.34;100.00;100952.25;10651027;28;20394;-75
2022/11/06 17:37:58;;;;;;;5.90;3.92;;;;;;;2.50;99.90;100945.47;10647118;28;20055;-75
2022/11/06 17:43:00;;;;;;;6.55;4.10;;;;;;;2.42;100.00;100949.25;10645458;28;20489;-75
2022/11/06 17:48:03;;;;;;;8.43;4.22;;;;;;;2.46;99.71;100945.06;10635917;27;20062;-75
2022/11/06 17:53:05;;;;;;;7.65;4.22;;;;;;;2.61;99.94;100933.91;10622533;27;20027;-76
2022/11/06 17:58:07;;;;;;;9.55;4.45;;;;;;;2.64;100.00;100936.19;10658933;27;20050;-76
2022/11/06 18:03:18;;;;;;;7.20;4.80;;;;;;;2.56;99.93;100945.38;10655438;27;20043;-76
2022/11/06 18:08:20;;;;;;;5.72;3.72;;;;;;;2.66;99.39;100945.72;10631764;27;20039;-76
2022/11/06 18:13:22;;;;;;;5.00;3.80;;;;;;;2.80;99.47;100945.63;10645500;27;20038;-79
2022/11/06 18:18:24;;;;;;;9.82;4.18;;;;;;;2.83;99.50;100950.59;10660272;27;20047;-81
2022/11/06 18:23:26;;;;;;;5.82;3.97;;;;;;;2.88;99.32;100957.00;10634568;27;20043;-78
2022/11/06 18:28:29;;;;;;;5.32;3.05;;;;;;;2.85;99.42;100954.72;10645963;27;20060;-82
2022/11/06 18:33:32;;;;;;;6.15;3.90;;;;;;;2.83;99.59;100953.31;10625522;27;20034;-79
2022/11/06 18:38:35;;;;;;;5.35;3.92;;;;;;;2.87;98.91;100958.06;10645584;27;20054;-84
2022/11/06 18:43:37;;;;;;;4.53;3.28;;;;;;;2.89;99.10;100944.28;10635581;27;20035;-89
2022/11/06 18:48:40;;;;;;;3.65;2.90;;;;;;;2.90;99.67;100943.22;10633394;27;20047;-87
2022/11/06 18:53:42;;;;;;;5.03;3.63;;;;;;;2.83;99.26;100937.88;10638013;27;20614;-87
2022/11/06 18:58:44;;;;;;;5.10;2.63;;;;;;;2.90;99.45;100933.19;10654576;27;20047;-82
2022/11/06 19:03:47;;;;;;;3.10;2.13;;;;;;;2.97;99.71;100938.56;10630161;27;20039;-79
2022/11/06 19:08:50;;;;;;;3.03;2.08;;;;;;;2.98;99.35;100932.94;10656336;27;20055;-81
2022/11/06 19:14:20;;;;;;;3.03;2.38;;;;;;;2.98;99.75;100935.66;10645140;27;20442;-77
2022/11/06 19:19:23;;;;;;;4.00;2.67;;;;;;;2.98;99.54;100937.53;10655532;27;20521;-77
2022/11/06 19:24:26;;;;;;;2.85;2.38;;;;;;;3.01;99.39;100931.66;10631378;27;20046;-76
2022/11/06 19:29:29;;;;;;;3.53;2.25;;;;;;;3.07;99.50;100933.44;10647949;27;20054;-78
2022/11/06 19:34:46;;;;;;;2.88;2.22;;;;;;;3.09;98.92;100934.06;10651590;27;20043;-75
2022/11/06 19:39:52;;;;;;;4.50;2.38;;;;;;;3.15;99.63;100938.59;10654755;27;20052;-76
2022/11/06 19:44:55;;;;;;;2.55;2.30;;;;;;;3.12;99.09;100938.19;10654772;27;20070;-77
2022/11/06 19:49:58;;;;;;;4.32;2.33;;;;;;;3.14;99.57;100933.41;10652505;27;20559;-77
2022/11/06 19:55:01;;;;;;;3.55;2.65;;;;;;;3.19;99.04;100938.97;10645692;27;20065;-76
2022/11/06 20:00:05;;;;;;;2.83;2.47;;;;;;;3.30;99.50;100930.09;10652986;27;20051;-76
2022/11/06 20:05:11;;;;;;;4.78;2.42;;;;;;;3.37;99.43;100941.69;10627741;27;20405;-81
2022/11/06 20:10:33;;;;;;;4.20;2.75;;;;;;;3.38;99.68;100942.50;10636778;27;20035;-86
2022/11/06 20:16:10;;;;;;;;;;;;;;;3.39;99.14;100938.75;10613594;27;20587;-79
2022/11/06 20:21:16;;;;;;;4.28;2.83;;;;;;;3.43;98.75;100934.50;10651800;27;19919;-77
2022/11/06 20:26:23;;;;;;;3.63;2.40;;;;;;;3.46;98.35;100929.47;10656407;27;20047;-74
2022/11/06 20:31:25;;;;;;;3.95;2.30;;;;;;;3.46;98.94;100924.03;10631226;27;20032;-74
2022/11/06 20:36:29;;;;;;;2.72;2.20;;;;;;;3.47;98.24;100923.00;10649910;27;20039;-85
2022/11/06 20:41:32;;;;;;;3.00;2.20;;;;;;;3.48;98.33;100923.84;10636228;27;20421;-86
2022/11/06 20:46:34;;;;;;;2.50;1.90;;;;;;;3.48;98.95;100910.28;10654622;27;20280;-89
2022/11/06 20:51:38;;;;;;;3.42;1.98;;;;;;;3.52;98.33;100916.88;10650132;27;20036;-93
2022/11/06 20:56:44;;;;;;;4.17;2.20;;;;;;;3.55;98.69;100908.28;10641635;27;20540;-90
2022/11/06 21:01:46;;;;;;;3.20;2.15;;;;;;;3.56;98.55;100909.94;10651554;27;20051;-83
2022/11/06 21:06:49;;;;;;;4.78;1.83;;;;;;;3.62;99.46;100901.72;10646034;27;20409;-86
2022/11/06 21:11:51;;;;;;;2.17;1.63;;;;;;;3.61;99.45;100899.22;10654757;27;20446;-87
2022/11/06 21:22:21;;;;;;;3.70;2.05;;;;;;;3.64;99.79;100893.34;10634718;27;20493;-84
2022/11/06 21:27:29;;;;;;;3.17;2.15;;;;;;;3.73;99.52;100894.69;10619148;27;20039;-84
2022/11/06 21:32:35;;;;;;;3.40;1.97;;;;;;;3.76;99.71;100896.09;10646991;27;20043;-84
2022/11/06 21:37:37;;;;;;;2.80;2.10;;;;;;;3.82;100.00;100893.31;10612971;28;20051;-83
2022/11/06 21:42:43;;;;;;;2.03;1.73;;;;;;;3.91;99.69;100883.78;10635316;28;20409;-85
2022/11/06 21:47:45;;;;;;;2.60;2.13;;;;;;;3.89;99.60;100880.47;10645035;28;20043;-84
2022/11/06 21:58:08;;;;;;;4.10;2.03;;;;;;;3.84;99.32;100871.38;10632676;28;20531;-85
2022/11/06 22:03:36;;;;;;;4.00;2.00;;;;;;;3.85;99.73;100864.88;10633806;28;20054;-84
2022/11/06 22:08:39;;;;;;;2.65;2.10;;;;;;;3.93;100.00;100864.53;10632879;28;20050;-84
2022/11/06 22:13:43;;;;;;;2.78;2.00;;;;;;;3.96;100.00;100852.38;10631501;27;20032;-82
2022/11/06 22:18:46;;;;;;;2.63;2.00;;;;;;;3.96;100.00;100858.63;10648146;28;20059;-82
2022/11/06 22:23:49;;;;;;;1.80;1.70;;;;;;;3.97;100.00;100856.75;10635086;28;20042;-83
2022/11/06 22:29:02;;;;;;;2.50;1.33;;;;;;;3.97;100.00;100870.31;10629611;28;20043;-82
2022/11/06 22:34:05;;;;;;;3.10;1.92;;;;;;;3.91;100.00;100869.38;10647043;27;20043;-78
2022/11/06 22:39:08;;;;;;;2.60;1.85;;;;;;;4.00;100.00;100856.31;10652950;27;20047;-76
2022/11/06 22:44:11;;;;;;;4.32;2.20;;;;;;;4.11;100.00;100869.06;10617299;27;20043;-78
2022/11/06 22:49:13;;;;;;;3.50;2.33;;;;;;;4.16;100.00;100869.19;10643718;27;20031;-79
2022/11/06 22:54:16;;;;;;;2.40;1.60;;;;;;;4.20;100.00;100865.78;10658832;27;20055;-78
2022/11/06 22:59:22;;;;;;;2.22;1.60;;;;;;;4.25;100.00;100867.81;10658497;27;20433;-80
2022/11/06 23:04:24;;;;;;;2.50;1.85;;;;;;;4.24;100.00;100858.81;10591156;27;20042;-81
2022/11/06 23:09:26;;;;;;;3.42;2.10;;;;;;;4.29;100.00;100860.81;10647320;27;20050;-83
2022/11/06 23:14:29;;;;;;;2.30;1.88;;;;;;;4.35;100.00;100851.75;10656103;27;20047;-79
2022/11/06 23:19:31;;;;;;;4.45;2.35;;;;;;;4.32;100.00;100852.22;10645290;27;20044;-79
2022/11/06 23:24:33;;;;;;;2.35;1.50;;;;;;;4.32;100.00;100849.50;10630231;27;20039;-80
2022/11/06 23:29:36;;;;;;;3.75;2.10;;;;;;;4.30;99.85;100840.75;10603999;27;20050;-79
2022/11/06 23:34:38;;;;;;;3.38;2.13;;;;;;;4.36;100.00;100841.72;10653505;27;20054;-78
2022/11/06 23:39:40;;;;;;;2.60;1.92;;;;;;;4.32;100.00;100852.22;10621939;27;20050;-78
2022/11/06 23:50:05;;;;;;;5.05;2.40;;;;;;;4.40;100.00;100848.34;10655095;27;20050;-78
2022/11/06 23:55:08;;;;;;;4.72;2.25;;;;;;;4.36;100.00;100858.84;10648277;27;20039;-77
